Airfield :
LOGIN :

Register | Disclaimer

   EN    FR    IT 

 










Legend :    VFR   Marginal VFR   IFR   Intensive IFR   Very Intensive IFR
Visi :
Ceiling :
>= 8 km
>= 3000ft
5 to 8 km
1000 to 3000 ft
1500m to 5 km
500 to 1000 ft
800 to 1500m
200 to 500 ft
< 800m
< 200 ft
Symbols :   Thunderstorms  Fog  Heavy snow  Heavy precipitations  Wind > 20 kt
SIGMETs :     Misc.  Thunderstorms  Icing  Turbulence  Mountain Waves  Volcanic Ashes






- Airport Elevation : 26 ft
- IATA code : GLA


EGPF - Glasgow

CURRENT METAR :
  • 071820Z AUTO 20018KT 8000 -RA BKN013/// BKN021/// //////TCU 11/10 Q0994

EXPIRED METARs :
  • 071750Z AUTO 20020KT 7000 -RA BKN012/// BKN023/// //////TCU 11/10 Q0995
  • 071720Z AUTO 21019KT 9999 -RA FEW013/// SCT023/// //////TCU 11/09 Q0996
  • 071650Z 21021KT 6000 -RA BKN011 BKN022 10/09 Q0997
  • 071620Z 21021KT 5000 -RA BKN009TCU 10/09 Q0997
  • 071550Z 21021KT 5000 -RA BKN009CB BKN017 BKN038 10/09 Q0998

TAF TAF EGPF
Valid from the 07 at 18:00 until the 08 at 18:00 UTC


071654Z 0718/0818 21020G32KT 9999 SCT010 BKN016
TEMPO 0718/0724 6000 RADZ BKN009
PROB40
TEMPO 0718/0724 3000 +RA BKN004
BECMG 0800/0802 26015KT
TEMPO 0800/0818 26020G30KT 6000 SHRA BKN012
ATIS : +44 141 887 7449



MET'MAP, your aeronautical weather chart ! - Copyright ORBIFLY December 2007 - Disclaimer

ORBIFLY MET'MAP TEAM :

Programming & Development : Alexandra Zaïnal
Concept & original design : Baudouin d'Aumeries
Assistance for programming : Marc-Olivier Méhu
Technical & hardware support : Manuel Goepfert

Contact : metmap@orbifly.com




SOURCES & CREDITS :

   NOAA